createdAt,value
2023-05-25T00:01:30.760Z,11.00
2023-05-25T00:04:34.493Z,11.00
2023-05-25T00:07:36.770Z,11.00
2023-05-25T00:10:38.490Z,10.90
2023-05-25T00:13:40.539Z,10.80
2023-05-25T00:16:42.260Z,10.80
2023-05-25T00:19:44.356Z,10.80
2023-05-25T00:22:46.194Z,10.80
2023-05-25T00:25:47.951Z,10.70
2023-05-25T00:28:49.662Z,10.70
2023-05-25T00:31:51.840Z,10.70
2023-05-25T00:34:57.511Z,10.60
2023-05-25T00:41:31.487Z,10.50
2023-05-25T00:44:34.786Z,10.60
2023-05-25T00:47:37.137Z,10.70
2023-05-25T00:50:41.793Z,10.80
2023-05-25T00:53:43.836Z,10.80
2023-05-25T00:56:56.142Z,10.60
2023-05-25T00:59:58.951Z,10.60
2023-05-25T01:03:11.791Z,10.50
2023-05-25T01:06:16.924Z,10.40
2023-05-25T01:09:20.824Z,10.40
2023-05-25T01:12:27.080Z,10.40
2023-05-25T01:15:30.998Z,10.50
2023-05-25T01:18:33.780Z,10.50
2023-05-25T01:21:55.894Z,10.50
2023-05-25T01:25:07.724Z,10.40
2023-05-25T01:28:18.457Z,10.50
2023-05-25T01:31:22.612Z,10.50
2023-05-25T01:34:25.885Z,10.40
2023-05-25T01:37:28.065Z,10.30
2023-05-25T01:40:31.823Z,10.30
2023-05-25T01:43:36.008Z,10.30
2023-05-25T01:46:39.852Z,10.20
2023-05-25T01:50:01.161Z,10.10
2023-05-25T01:53:04.501Z,10.10
2023-05-25T01:56:09.082Z,10.00
2023-05-25T01:59:11.742Z,10.10
2023-05-25T02:26:52.085Z,9.60
2023-05-25T02:29:53.921Z,9.60
2023-05-25T02:32:56.541Z,9.50
2023-05-25T02:35:58.447Z,9.50
2023-05-25T02:39:02.007Z,9.40
2023-05-25T02:42:04.109Z,9.30
2023-05-25T02:45:10.442Z,9.30
2023-05-25T02:48:13.703Z,9.20
2023-05-25T02:54:47.574Z,9.20
2023-05-25T02:57:55.759Z,9.20
2023-05-25T03:01:18.872Z,9.10
2023-05-25T03:04:31.277Z,9.10
2023-05-25T03:07:33.573Z,9.10
2023-05-25T03:10:35.696Z,9.20
2023-05-25T03:13:37.515Z,9.10
2023-05-25T03:16:39.984Z,9.10
2023-05-25T03:19:42.566Z,9.10
2023-05-25T03:22:45.011Z,9.10
2023-05-25T03:25:47.113Z,9.10
2023-05-25T03:28:49.444Z,9.00
2023-05-25T03:31:51.411Z,9.10
2023-05-25T03:34:54.357Z,9.80
2023-05-25T03:41:27.082Z,8.90
2023-05-25T03:52:06.157Z,9.00
2023-05-25T03:55:08.250Z,9.00
2023-05-25T04:05:07.000Z,8.90
2023-05-25T04:08:09.848Z,8.80
2023-05-25T04:11:11.912Z,8.90
2023-05-25T04:14:13.676Z,8.90
2023-05-25T04:20:47.740Z,9.60
2023-05-25T04:27:22.145Z,9.10
2023-05-25T04:34:02.553Z,9.30
2023-05-25T04:37:08.849Z,9.20
2023-05-25T04:44:05.629Z,9.40
2023-05-25T04:57:42.169Z,9.70
2023-05-25T05:00:44.363Z,9.80
2023-05-25T05:03:46.642Z,9.80
2023-05-25T05:14:04.921Z,10.00
2023-05-25T05:17:07.446Z,10.10
2023-05-25T05:20:09.786Z,10.20
2023-05-25T05:47:33.085Z,11.00
2023-05-25T05:50:35.049Z,11.00
2023-05-25T05:57:01.437Z,11.30
2023-05-25T06:42:24.779Z,12.10
2023-05-25T06:45:30.863Z,12.10
2023-05-25T07:06:02.660Z,12.00
2023-05-25T07:12:41.911Z,12.10
2023-05-25T07:15:44.165Z,12.10
2023-05-25T07:18:46.582Z,12.00
2023-05-25T07:25:12.795Z,12.30
2023-05-25T07:28:14.698Z,12.30
2023-05-25T07:31:16.717Z,12.30
2023-05-25T07:38:01.455Z,12.40
2023-05-25T07:41:03.499Z,12.40
2023-05-25T07:44:06.658Z,12.40
2023-05-25T07:54:21.659Z,12.60
2023-05-25T07:57:23.605Z,12.60
2023-05-25T08:00:25.631Z,12.60
2023-05-25T08:17:58.788Z,13.10
2023-05-25T08:35:31.727Z,13.00
2023-05-25T09:03:20.152Z,13.10
2023-05-25T09:13:38.650Z,13.50
2023-05-25T09:16:41.608Z,13.60
2023-05-25T09:19:53.338Z,13.70
2023-05-25T09:22:57.269Z,13.80
2023-05-25T09:40:56.088Z,13.70
2023-05-25T09:44:10.588Z,13.80
2023-05-25T10:05:16.818Z,14.30
2023-05-25T10:22:36.293Z,14.10
2023-05-25T10:25:46.796Z,14.10
2023-05-25T10:28:51.931Z,14.00
2023-05-25T10:35:46.759Z,14.20
2023-05-25T10:45:44.560Z,14.70
2023-05-25T10:48:49.274Z,14.70
2023-05-25T10:52:01.731Z,14.60
2023-05-25T10:55:07.337Z,14.60
2023-05-25T11:12:40.902Z,17.20
2023-05-25T11:36:42.552Z,16.00
2023-05-25T11:39:48.640Z,16.30
2023-05-25T11:42:52.788Z,16.50
2023-05-25T11:45:57.854Z,16.10
2023-05-25T11:49:00.734Z,16.10
2023-05-25T11:52:08.805Z,16.20
2023-05-25T12:05:52.670Z,16.40
2023-05-25T12:16:09.842Z,16.70
2023-05-25T12:19:12.023Z,16.90
2023-05-25T12:26:13.354Z,17.00
2023-05-25T12:29:15.638Z,16.60
2023-05-25T12:39:51.629Z,16.60
2023-05-25T12:42:57.542Z,16.80
2023-05-25T12:45:59.997Z,16.80
2023-05-25T12:56:22.556Z,16.70
2023-05-25T13:09:56.834Z,17.30
2023-05-25T13:27:48.569Z,17.40
2023-05-25T13:30:50.653Z,17.40
2023-05-25T13:33:52.576Z,17.30
2023-05-25T13:36:54.435Z,17.30
2023-05-25T13:39:56.462Z,17.10
2023-05-25T14:01:15.901Z,17.50
2023-05-25T14:14:58.493Z,17.10
2023-05-25T14:18:00.594Z,17.30
2023-05-25T14:21:02.533Z,17.60
2023-05-25T14:24:04.904Z,17.60
2023-05-25T14:38:02.596Z,17.30
2023-05-25T15:12:43.965Z,17.70
2023-05-25T15:15:46.039Z,17.60
2023-05-25T15:29:24.744Z,17.70
2023-05-25T15:46:57.712Z,17.40
2023-05-25T15:53:36.025Z,17.30
2023-05-25T16:11:15.070Z,17.80
2023-05-25T16:42:18.002Z,17.80
2023-05-25T16:56:15.815Z,18.20
2023-05-25T16:59:17.561Z,18.40
2023-05-25T17:02:19.473Z,18.50
2023-05-25T17:05:21.226Z,18.50
2023-05-25T17:12:01.745Z,18.60
2023-05-25T17:18:35.026Z,19.00
2023-05-25T17:25:47.506Z,18.70
2023-05-25T17:50:45.772Z,17.50
2023-05-25T18:07:51.814Z,16.90
2023-05-25T18:10:57.511Z,17.00
2023-05-25T18:20:59.402Z,16.90
2023-05-25T18:24:01.254Z,16.80
2023-05-25T18:30:33.703Z,16.80
2023-05-25T18:47:27.258Z,16.80
2023-05-25T18:50:29.067Z,16.70
2023-05-25T18:53:30.866Z,16.60
2023-05-25T18:56:32.588Z,16.60
2023-05-25T18:59:34.458Z,16.50
2023-05-25T19:02:36.972Z,16.40
2023-05-25T19:05:39.001Z,16.30
2023-05-25T19:08:40.841Z,16.20
2023-05-25T19:11:42.701Z,16.20
2023-05-25T19:14:44.573Z,16.10
2023-05-25T19:17:47.002Z,16.00
2023-05-25T19:20:49.004Z,15.90
2023-05-25T19:23:54.551Z,15.90
2023-05-25T19:26:56.332Z,15.80
2023-05-25T19:29:59.127Z,15.70
2023-05-25T19:33:01.072Z,15.60
2023-05-25T19:36:03.006Z,15.60
2023-05-25T19:39:04.949Z,15.50
2023-05-25T19:42:06.869Z,15.40
2023-05-25T19:45:08.959Z,15.30
2023-05-25T20:05:53.024Z,14.90
2023-05-25T20:12:35.055Z,14.80
2023-05-25T20:15:39.634Z,14.70
2023-05-25T20:18:43.388Z,14.70
2023-05-25T20:28:30.044Z,14.50
2023-05-25T20:31:32.100Z,14.50
2023-05-25T20:34:33.945Z,14.40
2023-05-25T20:44:51.775Z,14.20
2023-05-25T20:54:55.745Z,13.90
2023-05-25T20:57:59.565Z,14.10
2023-05-25T21:01:01.341Z,13.80
2023-05-25T21:04:03.219Z,13.90
2023-05-25T21:07:05.582Z,13.80
2023-05-25T21:10:07.931Z,13.70
2023-05-25T21:16:51.263Z,13.60
2023-05-25T21:27:16.871Z,13.40
2023-05-25T21:30:20.879Z,13.30
2023-05-25T21:33:25.861Z,13.20
2023-05-25T21:36:27.700Z,13.20
2023-05-25T21:39:29.456Z,13.20
2023-05-25T21:42:31.236Z,13.20
2023-05-25T21:45:32.996Z,13.10
2023-05-25T21:48:34.775Z,13.00
2023-05-25T21:51:36.552Z,13.10
2023-05-25T21:54:38.720Z,12.90
2023-05-25T21:57:40.723Z,12.90
2023-05-25T22:00:42.566Z,12.80
2023-05-25T22:03:44.393Z,12.70
2023-05-25T22:06:46.287Z,12.80
2023-05-25T22:09:48.010Z,12.70
2023-05-25T22:12:49.725Z,12.60
2023-05-25T22:15:51.597Z,12.50
2023-05-25T22:18:53.362Z,12.50
2023-05-25T22:21:55.142Z,12.40
2023-05-25T22:24:56.906Z,12.40
2023-05-25T22:27:58.686Z,12.30
2023-05-25T22:31:00.525Z,12.20
2023-05-25T22:34:02.456Z,12.20
2023-05-25T22:37:04.503Z,12.10
2023-05-25T22:40:06.823Z,12.00
2023-05-25T22:43:12.687Z,12.00
2023-05-25T22:46:14.533Z,12.00
2023-05-25T22:49:16.366Z,12.00
2023-05-25T22:52:18.347Z,11.80
2023-05-25T22:55:20.331Z,11.80
2023-05-25T22:58:22.346Z,11.70
2023-05-25T23:01:24.174Z,11.60
2023-05-25T23:04:26.125Z,11.60
2023-05-25T23:07:27.950Z,11.50
2023-05-25T23:10:29.767Z,11.50
2023-05-25T23:13:31.967Z,11.40
2023-05-25T23:16:34.053Z,11.40
2023-05-25T23:19:35.887Z,11.40
2023-05-25T23:22:37.802Z,11.30
2023-05-25T23:25:39.831Z,11.30
2023-05-25T23:28:41.609Z,11.30
2023-05-25T23:31:43.479Z,11.10
2023-05-25T23:34:45.367Z,11.00
2023-05-25T23:37:47.190Z,11.10
2023-05-25T23:40:48.966Z,11.10
2023-05-25T23:43:50.903Z,11.00
2023-05-25T23:46:52.798Z,11.00
2023-05-25T23:49:54.542Z,11.00
2023-05-25T23:52:56.336Z,11.10
2023-05-25T23:55:58.053Z,10.90
2023-05-25T23:58:59.818Z,10.80
